Anchorage/Merrill Field, Alaska
Current Conditions -  °F | °C
As of 9:53 PM on Wednesday 22 Oct 2014 (Local Time) from PAMR Reporting Station
Clear Clear  
Wind Chill: 29°   Ceiling: Unl
Heat Index: 29°   Visibility: 10mi
Dew Point: 23°   Wind: 0mph
Humidity: 78%   Direction: NA
Pressure: 29.46"   Gusts: NA
Location:  61.21°N, 149.85°W
Report Text: PAMR 230553Z 00000KT 10SM CLR M02/M05 A2946 RMK AO2 SLP977 T10171050 10044 21017 53022
Loading
Personal Weather Stations






























Interactive Weather Map New forecast layout! Learn more

10-Day Weather Forecast

Advertisements
Track Severe Weather on mobile